sensor_id;sensor_type;location;lat;lon;timestamp;pressure;altitude;pressure_sealevel;temperature;humidity
54172;BME280;40076;52.354;4.970;2024-03-02T00:01:39;99740.03;;;9.04;100.00
54172;BME280;40076;52.354;4.970;2024-03-02T00:04:05;99745.41;;;9.04;100.00
54172;BME280;40076;52.354;4.970;2024-03-02T00:06:33;99756.53;;;9.02;100.00
54172;BME280;40076;52.354;4.970;2024-03-02T00:09:01;99739.91;;;9.00;100.00
54172;BME280;40076;52.354;4.970;2024-03-02T00:11:26;99767.63;;;9.01;100.00
54172;BME280;40076;52.354;4.970;2024-03-02T00:13:55;99801.09;;;9.00;100.00
54172;BME280;40076;52.354;4.970;2024-03-02T00:16:21;99811.09;;;8.99;100.00
54172;BME280;40076;52.354;4.970;2024-03-02T00:18:49;99823.19;;;8.93;100.00
54172;BME280;40076;52.354;4.970;2024-03-02T00:21:17;99814.41;;;8.84;100.00
54172;BME280;40076;52.354;4.970;2024-03-02T00:23:54;99822.25;;;8.77;100.00
54172;BME280;40076;52.354;4.970;2024-03-02T00:26:19;99827.34;;;8.70;100.00
54172;BME280;40076;52.354;4.970;2024-03-02T00:28:45;99828.03;;;8.67;100.00
54172;BME280;40076;52.354;4.970;2024-03-02T00:31:14;99824.09;;;8.64;100.00
54172;BME280;40076;52.354;4.970;2024-03-02T00:33:47;99818.13;;;8.59;100.00
54172;BME280;40076;52.354;4.970;2024-03-02T00:36:22;99831.31;;;8.51;100.00
54172;BME280;40076;52.354;4.970;2024-03-02T00:38:51;99825.00;;;8.47;100.00
54172;BME280;40076;52.354;4.970;2024-03-02T00:41:31;99830.59;;;8.42;100.00
54172;BME280;40076;52.354;4.970;2024-03-02T00:44:07;99826.38;;;8.33;100.00
54172;BME280;40076;52.354;4.970;2024-03-02T00:46:38;99821.66;;;8.30;100.00
54172;BME280;40076;52.354;4.970;2024-03-02T00:49:17;99825.66;;;8.24;100.00
54172;BME280;40076;52.354;4.970;2024-03-02T00:51:46;99834.41;;;8.12;100.00
54172;BME280;40076;52.354;4.970;2024-03-02T00:54:14;99841.69;;;8.11;100.00
54172;BME280;40076;52.354;4.970;2024-03-02T00:56:41;99835.84;;;8.09;100.00
54172;BME280;40076;52.354;4.970;2024-03-02T00:59:10;99841.09;;;8.06;100.00
54172;BME280;40076;52.354;4.970;2024-03-02T01:01:39;99847.13;;;8.03;100.00
54172;BME280;40076;52.354;4.970;2024-03-02T01:04:08;99850.13;;;8.01;100.00
54172;BME280;40076;52.354;4.970;2024-03-02T01:06:37;99846.22;;;7.99;100.00
54172;BME280;40076;52.354;4.970;2024-03-02T01:09:09;99856.97;;;7.99;100.00
54172;BME280;40076;52.354;4.970;2024-03-02T01:11:34;99847.16;;;7.94;100.00
54172;BME280;40076;52.354;4.970;2024-03-02T01:14:00;99849.06;;;7.94;100.00
54172;BME280;40076;52.354;4.970;2024-03-02T01:16:25;99837.88;;;7.92;100.00
54172;BME280;40076;52.354;4.970;2024-03-02T01:18:51;99845.78;;;7.88;100.00
54172;BME280;40076;52.354;4.970;2024-03-02T01:21:20;99859.91;;;7.85;100.00
54172;BME280;40076;52.354;4.970;2024-03-02T01:23:48;99857.84;;;7.82;100.00
54172;BME280;40076;52.354;4.970;2024-03-02T01:26:14;99847.41;;;7.81;100.00
54172;BME280;40076;52.354;4.970;2024-03-02T01:28:39;99857.69;;;7.79;100.00
54172;BME280;40076;52.354;4.970;2024-03-02T01:31:05;99858.81;;;7.78;100.00
54172;BME280;40076;52.354;4.970;2024-03-02T01:33:33;99853.44;;;7.78;100.00
54172;BME280;40076;52.354;4.970;2024-03-02T01:35:58;99858.81;;;7.78;100.00
54172;BME280;40076;52.354;4.970;2024-03-02T01:38:32;99858.66;;;7.74;100.00
54172;BME280;40076;52.354;4.970;2024-03-02T01:40:59;99854.88;;;7.75;100.00
54172;BME280;40076;52.354;4.970;2024-03-02T01:43:25;99839.53;;;7.75;100.00
54172;BME280;40076;52.354;4.970;2024-03-02T01:45:51;99836.38;;;7.73;100.00
54172;BME280;40076;52.354;4.970;2024-03-02T01:48:16;99832.09;;;7.72;100.00
54172;BME280;40076;52.354;4.970;2024-03-02T01:50:48;99848.22;;;7.72;100.00
54172;BME280;40076;52.354;4.970;2024-03-02T01:53:15;99860.09;;;7.71;100.00
54172;BME280;40076;52.354;4.970;2024-03-02T01:55:44;99871.19;;;7.70;100.00
54172;BME280;40076;52.354;4.970;2024-03-02T01:58:10;99884.94;;;7.68;100.00
54172;BME280;40076;52.354;4.970;2024-03-02T02:00:35;99893.34;;;7.67;100.00
54172;BME280;40076;52.354;4.970;2024-03-02T02:03:03;99886.06;;;7.67;100.00
54172;BME280;40076;52.354;4.970;2024-03-02T02:05:29;99881.47;;;7.68;100.00
54172;BME280;40076;52.354;4.970;2024-03-02T02:07:55;99879.41;;;7.65;100.00
54172;BME280;40076;52.354;4.970;2024-03-02T02:10:28;99872.94;;;7.66;100.00
54172;BME280;40076;52.354;4.970;2024-03-02T02:12:53;99888.75;;;7.67;100.00
54172;BME280;40076;52.354;4.970;2024-03-02T02:15:28;99893.03;;;7.60;100.00
54172;BME280;40076;52.354;4.970;2024-03-02T02:17:58;99892.72;;;7.61;100.00
54172;BME280;40076;52.354;4.970;2024-03-02T02:20:27;99874.22;;;7.60;100.00
54172;BME280;40076;52.354;4.970;2024-03-02T02:23:03;99877.22;;;7.58;100.00
54172;BME280;40076;52.354;4.970;2024-03-02T02:25:30;99872.16;;;7.57;100.00
54172;BME280;40076;52.354;4.970;2024-03-02T02:27:57;99885.63;;;7.57;100.00
54172;BME280;40076;52.354;4.970;2024-03-02T02:30:25;99890.66;;;7.58;100.00
54172;BME280;40076;52.354;4.970;2024-03-02T02:32:51;99880.72;;;7.59;100.00
54172;BME280;40076;52.354;4.970;2024-03-02T02:35:20;99890.19;;;7.56;100.00
54172;BME280;40076;52.354;4.970;2024-03-02T02:37:47;99882.91;;;7.57;100.00
54172;BME280;40076;52.354;4.970;2024-03-02T02:40:16;99888.31;;;7.57;100.00
54172;BME280;40076;52.354;4.970;2024-03-02T02:42:44;99885.16;;;7.55;100.00
54172;BME280;40076;52.354;4.970;2024-03-02T02:45:10;99883.25;;;7.55;100.00
54172;BME280;40076;52.354;4.970;2024-03-02T02:47:38;99879.31;;;7.53;100.00
54172;BME280;40076;52.354;4.970;2024-03-02T02:50:04;99882.00;;;7.53;100.00
54172;BME280;40076;52.354;4.970;2024-03-02T02:52:35;99874.56;;;7.50;100.00
54172;BME280;40076;52.354;4.970;2024-03-02T02:55:06;99888.78;;;7.50;100.00
54172;BME280;40076;52.354;4.970;2024-03-02T02:57:33;99889.91;;;7.49;100.00
54172;BME280;40076;52.354;4.970;2024-03-02T03:00:08;99905.59;;;7.47;100.00
54172;BME280;40076;52.354;4.970;2024-03-02T03:02:46;99887.09;;;7.46;100.00
54172;BME280;40076;52.354;4.970;2024-03-02T03:05:13;99900.97;;;7.48;100.00
54172;BME280;40076;52.354;4.970;2024-03-02T03:07:40;99892.78;;;7.44;100.00
54172;BME280;40076;52.354;4.970;2024-03-02T03:10:09;99892.78;;;7.44;100.00
54172;BME280;40076;52.354;4.970;2024-03-02T03:12:38;99893.88;;;7.43;100.00
54172;BME280;40076;52.354;4.970;2024-03-02T03:15:04;99893.88;;;7.43;100.00
54172;BME280;40076;52.354;4.970;2024-03-02T03:17:33;99896.25;;;7.45;100.00
54172;BME280;40076;52.354;4.970;2024-03-02T03:20:02;99889.59;;;7.42;100.00
54172;BME280;40076;52.354;4.970;2024-03-02T03:22:29;99896.88;;;7.42;100.00
54172;BME280;40076;52.354;4.970;2024-03-02T03:24:58;99894.97;;;7.42;100.00
54172;BME280;40076;52.354;4.970;2024-03-02T03:27:25;99893.88;;;7.43;100.00
54172;BME280;40076;52.354;4.970;2024-03-02T03:29:51;99902.25;;;7.42;100.00
54172;BME280;40076;52.354;4.970;2024-03-02T03:32:20;99894.97;;;7.42;100.00
54172;BME280;40076;52.354;4.970;2024-03-02T03:34:45;99901.47;;;7.41;100.00
54172;BME280;40076;52.354;4.970;2024-03-02T03:37:14;99903.03;;;7.42;100.00
54172;BME280;40076;52.354;4.970;2024-03-02T03:39:40;99904.16;;;7.41;100.00
54172;BME280;40076;52.354;4.970;2024-03-02T03:42:06;99907.31;;;7.43;100.00
54172;BME280;40076;52.354;4.970;2024-03-02T03:44:33;99910.00;;;7.43;100.00
54172;BME280;40076;52.354;4.970;2024-03-02T03:47:07;99915.84;;;7.45;100.00
54172;BME280;40076;52.354;4.970;2024-03-02T03:49:33;99912.69;;;7.43;100.00
54172;BME280;40076;52.354;4.970;2024-03-02T03:51:58;99917.28;;;7.43;100.00
54172;BME280;40076;52.354;4.970;2024-03-02T03:54:24;99922.66;;;7.43;100.00
54172;BME280;40076;52.354;4.970;2024-03-02T03:56:53;99924.56;;;7.42;100.00
54172;BME280;40076;52.354;4.970;2024-03-02T03:59:18;99924.88;;;7.41;100.00
54172;BME280;40076;52.354;4.970;2024-03-02T04:01:44;99924.56;;;7.42;100.00
54172;BME280;40076;52.354;4.970;2024-03-02T04:04:09;99929.13;;;7.42;100.00
54172;BME280;40076;52.354;4.970;2024-03-02T04:06:35;99931.81;;;7.42;100.00
54172;BME280;40076;52.354;4.970;2024-03-02T04:09:03;99925.22;;;7.39;100.00
54172;BME280;40076;52.354;4.970;2024-03-02T04:11:29;99929.91;;;7.42;100.00
54172;BME280;40076;52.354;4.970;2024-03-02T04:13:58;99937.19;;;7.42;100.00
54172;BME280;40076;52.354;4.970;2024-03-02T04:16:23;99922.19;;;7.41;100.00
54172;BME280;40076;52.354;4.970;2024-03-02T04:18:49;99937.50;;;7.40;100.00
54172;BME280;40076;52.354;4.970;2024-03-02T04:21:15;99942.88;;;7.40;100.00
54172;BME280;40076;52.354;4.970;2024-03-02T04:23:43;99935.47;;;7.37;100.00
54172;BME280;40076;52.354;4.970;2024-03-02T04:26:11;99934.69;;;7.36;100.00
54172;BME280;40076;52.354;4.970;2024-03-02T04:28:36;99938.66;;;7.39;100.00
54172;BME280;40076;52.354;4.970;2024-03-02T04:31:02;99935.94;;;7.39;100.00
54172;BME280;40076;52.354;4.970;2024-03-02T04:33:28;99934.38;;;7.38;100.00
54172;BME280;40076;52.354;4.970;2024-03-02T04:35:53;99935.16;;;7.39;100.00
54172;BME280;40076;52.354;4.970;2024-03-02T04:38:21;99929.44;;;7.40;100.00
54172;BME280;40076;52.354;4.970;2024-03-02T04:40:49;99936.41;;;7.41;100.00
54172;BME280;40076;52.354;4.970;2024-03-02T04:43:27;99938.66;;;7.39;100.00
54172;BME280;40076;52.354;4.970;2024-03-02T04:45:55;99937.84;;;7.39;100.00
54172;BME280;40076;52.354;4.970;2024-03-02T04:48:21;99945.91;;;7.39;100.00
54172;BME280;40076;52.354;4.970;2024-03-02T04:50:47;99943.22;;;7.39;100.00
54172;BME280;40076;52.354;4.970;2024-03-02T04:53:12;99950.50;;;7.38;100.00
54172;BME280;40076;52.354;4.970;2024-03-02T04:55:39;99949.22;;;7.35;100.00
54172;BME280;40076;52.354;4.970;2024-03-02T04:58:04;99944.16;;;7.34;100.00
54172;BME280;40076;52.354;4.970;2024-03-02T05:00:34;99959.97;;;7.35;100.00
54172;BME280;40076;52.354;4.970;2024-03-02T05:02:59;99962.97;;;7.34;100.00
54172;BME280;40076;52.354;4.970;2024-03-02T05:05:25;99954.13;;;7.33;100.00
54172;BME280;40076;52.354;4.970;2024-03-02T05:07:51;99958.69;;;7.33;100.00
54172;BME280;40076;52.354;4.970;2024-03-02T05:10:17;99964.72;;;7.30;100.00
54172;BME280;40076;52.354;4.970;2024-03-02T05:12:45;99966.63;;;7.29;100.00
54172;BME280;40076;52.354;4.970;2024-03-02T05:15:14;99966.16;;;7.27;100.00
54172;BME280;40076;52.354;4.970;2024-03-02T05:17:41;99966.16;;;7.27;100.00
54172;BME280;40076;52.354;4.970;2024-03-02T05:20:17;99974.06;;;7.24;100.00
54172;BME280;40076;52.354;4.970;2024-03-02T05:22:43;99970.59;;;7.23;100.00
54172;BME280;40076;52.354;4.970;2024-03-02T05:25:09;99962.84;;;7.22;100.00
54172;BME280;40076;52.354;4.970;2024-03-02T05:27:37;99976.59;;;7.20;100.00
54172;BME280;40076;52.354;4.970;2024-03-02T05:30:02;99981.16;;;7.20;100.00
54172;BME280;40076;52.354;4.970;2024-03-02T05:32:31;99980.38;;;7.19;100.00
54172;BME280;40076;52.354;4.970;2024-03-02T05:34:57;99986.41;;;7.16;100.00
54172;BME280;40076;52.354;4.970;2024-03-02T05:37:23;99980.53;;;7.14;100.00
54172;BME280;40076;52.354;4.970;2024-03-02T05:39:48;99977.06;;;7.14;100.00
54172;BME280;40076;52.354;4.970;2024-03-02T05:42:14;99986.72;;;7.15;100.00
54172;BME280;40076;52.354;4.970;2024-03-02T05:44:42;99990.00;;;7.12;100.00
54172;BME280;40076;52.354;4.970;2024-03-02T05:47:10;99989.22;;;7.11;100.00
54172;BME280;40076;52.354;4.970;2024-03-02T05:49:36;99993.00;;;7.10;100.00
54172;BME280;40076;52.354;4.970;2024-03-02T05:52:07;99988.78;;;7.09;100.00
54172;BME280;40076;52.354;4.970;2024-03-02T05:54:32;99992.88;;;7.07;100.00
54172;BME280;40076;52.354;4.970;2024-03-02T05:56:58;99997.44;;;7.06;100.00
54172;BME280;40076;52.354;4.970;2024-03-02T05:59:41;100001.53;;;7.04;100.00
54172;BME280;40076;52.354;4.970;2024-03-02T06:02:10;100004.22;;;7.04;100.00
54172;BME280;40076;52.354;4.970;2024-03-02T06:04:35;100008.97;;;6.98;100.00
54172;BME280;40076;52.354;4.970;2024-03-02T06:07:01;100000.59;;;7.00;100.00
54172;BME280;40076;52.354;4.970;2024-03-02T06:09:26;99993.47;;;6.95;100.00
54172;BME280;40076;52.354;4.970;2024-03-02T06:11:52;99995.69;;;6.93;100.00
54172;BME280;40076;52.354;4.970;2024-03-02T06:14:18;99994.25;;;6.87;100.00
54172;BME280;40076;52.354;4.970;2024-03-02T06:16:43;99992.50;;;6.82;100.00
54172;BME280;40076;52.354;4.970;2024-03-02T06:19:09;99993.00;;;6.84;100.00
54172;BME280;40076;52.354;4.970;2024-03-02T06:21:34;100000.56;;;6.82;100.00
54172;BME280;40076;52.354;4.970;2024-03-02T06:24:00;99999.00;;;6.81;100.00
54172;BME280;40076;52.354;4.970;2024-03-02T06:26:28;100005.16;;;6.82;100.00
54172;BME280;40076;52.354;4.970;2024-03-02T06:28:55;100007.03;;;6.81;100.00
54172;BME280;40076;52.354;4.970;2024-03-02T06:31:23;100006.72;;;6.83;100.00
54172;BME280;40076;52.354;4.970;2024-03-02T06:33:48;100011.31;;;6.82;100.00
54172;BME280;40076;52.354;4.970;2024-03-02T06:36:14;100014.00;;;6.82;100.00
54172;BME280;40076;52.354;4.970;2024-03-02T06:38:40;100020.16;;;6.83;100.00
54172;BME280;40076;52.354;4.970;2024-03-02T06:41:06;100020.16;;;6.83;100.00
54172;BME280;40076;52.354;4.970;2024-03-02T06:43:31;100036.75;;;6.85;100.00
54172;BME280;40076;52.354;4.970;2024-03-02T06:45:59;100028.69;;;6.85;100.00
54172;BME280;40076;52.354;4.970;2024-03-02T06:48:25;100026.81;;;6.85;100.00
54172;BME280;40076;52.354;4.970;2024-03-02T06:50:57;100031.09;;;6.86;100.00
54172;BME280;40076;52.354;4.970;2024-03-02T06:53:23;100037.56;;;6.85;100.00
54172;BME280;40076;52.354;4.970;2024-03-02T06:55:48;100037.56;;;6.85;100.00
54172;BME280;40076;52.354;4.970;2024-03-02T06:58:14;100030.59;;;6.84;100.00
54172;BME280;40076;52.354;4.970;2024-03-02T07:00:42;100031.84;;;6.87;100.00
54172;BME280;40076;52.354;4.970;2024-03-02T07:03:09;100028.84;;;6.88;100.00
54172;BME280;40076;52.354;4.970;2024-03-02T07:05:34;100031.72;;;6.92;100.00
54172;BME280;40076;52.354;4.970;2024-03-02T07:08:00;100028.53;;;6.90;100.00
54172;BME280;40076;52.354;4.970;2024-03-02T07:10:26;100031.41;;;6.93;100.00
54172;BME280;40076;52.354;4.970;2024-03-02T07:12:52;100029.81;;;6.92;100.00
54172;BME280;40076;52.354;4.970;2024-03-02T07:15:17;100030.28;;;6.94;100.00
54172;BME280;40076;52.354;4.970;2024-03-02T07:18:02;100040.25;;;6.94;100.00
54172;BME280;40076;52.354;4.970;2024-03-02T07:20:28;100039.78;;;6.92;100.00
54172;BME280;40076;52.354;4.970;2024-03-02T07:22:53;100038.34;;;6.94;100.00
54172;BME280;40076;52.354;4.970;2024-03-02T07:25:19;100040.72;;;6.96;100.00
54172;BME280;40076;52.354;4.970;2024-03-02T07:27:44;100042.31;;;6.97;100.00
54172;BME280;40076;52.354;4.970;2024-03-02T07:30:15;100046.88;;;6.96;100.00
54172;BME280;40076;52.354;4.970;2024-03-02T07:32:46;100052.56;;;6.95;100.00
54172;BME280;40076;52.354;4.970;2024-03-02T07:35:12;100046.09;;;6.96;100.00
54172;BME280;40076;52.354;4.970;2024-03-02T07:37:38;100052.44;;;7.00;100.00
54172;BME280;40076;52.354;4.970;2024-03-02T07:40:04;100055.56;;;7.02;100.00
54172;BME280;40076;52.354;4.970;2024-03-02T07:42:30;100053.22;;;7.01;100.00
54172;BME280;40076;52.354;4.970;2024-03-02T07:44:55;100049.09;;;7.03;100.00
54172;BME280;40076;52.354;4.970;2024-03-02T07:47:20;100060.63;;;7.04;100.00
54172;BME280;40076;52.354;4.970;2024-03-02T07:49:46;100057.16;;;7.03;100.00
54172;BME280;40076;52.354;4.970;2024-03-02T07:52:14;100068.25;;;7.02;100.00
54172;BME280;40076;52.354;4.970;2024-03-02T07:54:39;100078.50;;;7.00;100.00
54172;BME280;40076;52.354;4.970;2024-03-02T07:57:05;100073.28;;;7.03;100.00
54172;BME280;40076;52.354;4.970;2024-03-02T07:59:30;100070.13;;;7.01;100.00
54172;BME280;40076;52.354;4.970;2024-03-02T08:01:56;100082.91;;;7.04;100.00
54172;BME280;40076;52.354;4.970;2024-03-02T08:04:21;100078.34;;;7.05;100.00
54172;BME280;40076;52.354;4.970;2024-03-02T08:06:47;100083.41;;;7.06;100.00
54172;BME280;40076;52.354;4.970;2024-03-02T08:09:12;100081.50;;;7.07;100.00
54172;BME280;40076;52.354;4.970;2024-03-02T08:11:38;100081.66;;;7.10;100.00
54172;BME280;40076;52.354;4.970;2024-03-02T08:14:03;100072.19;;;7.13;100.00
54172;BME280;40076;52.354;4.970;2024-03-02T08:16:29;100075.38;;;7.15;100.00
54172;BME280;40076;52.354;4.970;2024-03-02T08:18:57;100081.53;;;7.15;100.00
54172;BME280;40076;52.354;4.970;2024-03-02T08:21:26;100078.19;;;7.18;100.00
54172;BME280;40076;52.354;4.970;2024-03-02T08:23:51;100080.28;;;7.21;100.00
54172;BME280;40076;52.354;4.970;2024-03-02T08:26:16;100082.97;;;7.21;100.00
54172;BME280;40076;52.354;4.970;2024-03-02T08:28:42;100075.84;;;7.25;100.00
54172;BME280;40076;52.354;4.970;2024-03-02T08:31:07;100073.94;;;7.26;100.00
54172;BME280;40076;52.354;4.970;2024-03-02T08:33:33;100078.38;;;7.30;100.00
54172;BME280;40076;52.354;4.970;2024-03-02T08:36:07;100063.84;;;7.31;100.00
54172;BME280;40076;52.354;4.970;2024-03-02T08:38:50;100067.00;;;7.33;100.00
54172;BME280;40076;52.354;4.970;2024-03-02T08:41:15;100058.00;;;7.38;100.00
54172;BME280;40076;52.354;4.970;2024-03-02T08:43:42;100063.81;;;7.40;100.00
54172;BME280;40076;52.354;4.970;2024-03-02T08:46:07;100071.75;;;7.45;100.00
54172;BME280;40076;52.354;4.970;2024-03-02T08:48:33;100074.13;;;7.47;100.00
54172;BME280;40076;52.354;4.970;2024-03-02T08:50:58;100063.03;;;7.48;100.00
54172;BME280;40076;52.354;4.970;2024-03-02T08:53:26;100052.78;;;7.50;100.00
54172;BME280;40076;52.354;4.970;2024-03-02T08:55:54;100057.53;;;7.53;100.00
54172;BME280;40076;52.354;4.970;2024-03-02T08:58:20;100049.16;;;7.55;100.00
54172;BME280;40076;52.354;4.970;2024-03-02T09:00:48;100059.25;;;7.58;100.00
54172;BME280;40076;52.354;4.970;2024-03-02T09:03:13;100064.00;;;7.61;100.00
54172;BME280;40076;52.354;4.970;2024-03-02T09:05:39;100067.63;;;7.65;100.00
54172;BME280;40076;52.354;4.970;2024-03-02T09:08:05;100059.25;;;7.66;100.00
54172;BME280;40076;52.354;4.970;2024-03-02T09:10:31;100079.00;;;7.70;100.00
54172;BME280;40076;52.354;4.970;2024-03-02T09:12:56;100071.91;;;7.74;100.00
54172;BME280;40076;52.354;4.970;2024-03-02T09:15:22;100070.94;;;7.79;100.00
54172;BME280;40076;52.354;4.970;2024-03-02T09:17:47;100084.84;;;7.81;100.00
54172;BME280;40076;52.354;4.970;2024-03-02T09:20:12;100093.41;;;7.83;100.00
54172;BME280;40076;52.354;4.970;2024-03-02T09:22:39;100092.31;;;7.84;100.00
54172;BME280;40076;52.354;4.970;2024-03-02T09:25:04;100091.34;;;7.89;100.00
54172;BME280;40076;52.354;4.970;2024-03-02T09:27:29;100092.63;;;7.91;100.00
54172;BME280;40076;52.354;4.970;2024-03-02T09:29:55;100090.06;;;7.95;100.00
54172;BME280;40076;52.354;4.970;2024-03-02T09:32:20;100085.16;;;7.97;100.00
54172;BME280;40076;52.354;4.970;2024-03-02T09:34:45;100090.72;;;8.00;100.00
54172;BME280;40076;52.354;4.970;2024-03-02T09:37:13;100094.63;;;8.03;100.00
54172;BME280;40076;52.354;4.970;2024-03-02T09:39:38;100094.50;;;8.08;100.00
54172;BME280;40076;52.354;4.970;2024-03-02T09:42:04;100095.72;;;8.10;100.00
54172;BME280;40076;52.354;4.970;2024-03-02T09:44:30;100102.88;;;8.15;100.00
54172;BME280;40076;52.354;4.970;2024-03-02T09:46:55;100102.22;;;8.18;100.00
54172;BME280;40076;52.354;4.970;2024-03-02T09:49:21;100110.13;;;8.23;100.00
54172;BME280;40076;52.354;4.970;2024-03-02T09:51:48;100114.22;;;8.29;100.00
54172;BME280;40076;52.354;4.970;2024-03-02T09:54:15;100099.34;;;8.32;100.00
54172;BME280;40076;52.354;4.970;2024-03-02T09:56:41;100099.81;;;8.34;100.00
54172;BME280;40076;52.354;4.970;2024-03-02T09:59:06;100107.75;;;8.39;100.00
54172;BME280;40076;52.354;4.970;2024-03-02T10:01:32;100099.00;;;8.42;100.00
54172;BME280;40076;52.354;4.970;2024-03-02T10:03:59;100096.47;;;8.45;100.00
54172;BME280;40076;52.354;4.970;2024-03-02T10:06:28;100082.81;;;8.50;100.00
54172;BME280;40076;52.354;4.970;2024-03-02T10:08:54;100093.41;;;8.56;100.00
54172;BME280;40076;52.354;4.970;2024-03-02T10:11:27;100099.75;;;8.60;100.00
54172;BME280;40076;52.354;4.970;2024-03-02T10:14:12;100098.78;;;8.64;100.00
54172;BME280;40076;52.354;4.970;2024-03-02T10:16:42;100098.44;;;8.66;100.00
54172;BME280;40076;52.354;4.970;2024-03-02T10:19:24;100093.66;;;8.71;100.00
54172;BME280;40076;52.354;4.970;2024-03-02T10:21:53;100095.41;;;8.76;100.00
54172;BME280;40076;52.354;4.970;2024-03-02T10:24:20;100101.72;;;8.80;100.00
54172;BME280;40076;52.354;4.970;2024-03-02T10:26:46;100102.66;;;8.84;100.00
54172;BME280;40076;52.354;4.970;2024-03-02T10:29:12;100105.00;;;8.85;100.00
54172;BME280;40076;52.354;4.970;2024-03-02T10:31:38;100109.13;;;8.92;100.00
54172;BME280;40076;52.354;4.970;2024-03-02T10:34:04;100103.06;;;8.95;100.00
54172;BME280;40076;52.354;4.970;2024-03-02T10:36:30;100102.91;;;9.00;100.00
54172;BME280;40076;52.354;4.970;2024-03-02T10:38:58;100097.94;;;9.02;100.00
54172;BME280;40076;52.354;4.970;2024-03-02T10:41:26;100086.22;;;9.06;100.00
54172;BME280;40076;52.354;4.970;2024-03-02T10:43:56;100092.84;;;9.09;100.00
54172;BME280;40076;52.354;4.970;2024-03-02T10:46:28;100085.38;;;9.14;100.00
54172;BME280;40076;52.354;4.970;2024-03-02T10:48:55;100085.81;;;9.16;100.00
54172;BME280;40076;52.354;4.970;2024-03-02T10:51:24;100078.00;;;9.23;100.00
54172;BME280;40076;52.354;4.970;2024-03-02T10:53:49;100080.03;;;9.26;100.00
54172;BME280;40076;52.354;4.970;2024-03-02T10:56:25;100072.53;;;9.32;100.00
54172;BME280;40076;52.354;4.970;2024-03-02T10:59:00;100085.50;;;9.39;100.00
54172;BME280;40076;52.354;4.970;2024-03-02T11:01:29;100065.97;;;9.42;100.00
54172;BME280;40076;52.354;4.970;2024-03-02T11:03:54;100070.72;;;9.45;100.00
54172;BME280;40076;52.354;4.970;2024-03-02T11:06:25;100081.94;;;9.47;100.00
54172;BME280;40076;52.354;4.970;2024-03-02T11:08:55;100078.28;;;9.51;100.00
54172;BME280;40076;52.354;4.970;2024-03-02T11:11:30;100083.34;;;9.53;100.00
54172;BME280;40076;52.354;4.970;2024-03-02T11:14:01;100070.31;;;9.55;100.00
54172;BME280;40076;52.354;4.970;2024-03-02T11:16:36;100065.84;;;9.59;100.00
54172;BME280;40076;52.354;4.970;2024-03-02T11:19:07;100064.03;;;9.63;100.00
54172;BME280;40076;52.354;4.970;2024-03-02T11:21:34;100069.25;;;9.68;100.00
54172;BME280;40076;52.354;4.970;2024-03-02T11:24:00;100063.97;;;9.72;100.00
54172;BME280;40076;52.354;4.970;2024-03-02T11:26:45;100075.34;;;9.77;100.00
54172;BME280;40076;52.354;4.970;2024-03-02T11:32:03;100071.78;;;9.85;100.00
54172;BME280;40076;52.354;4.970;2024-03-02T11:34:33;100067.97;;;9.86;100.00
54172;BME280;40076;52.354;4.970;2024-03-02T11:37:01;100060.13;;;9.93;100.00
54172;BME280;40076;52.354;4.970;2024-03-02T11:39:28;100062.16;;;9.96;100.00
54172;BME280;40076;52.354;4.970;2024-03-02T11:41:59;100056.88;;;10.00;100.00
54172;BME280;40076;52.354;4.970;2024-03-02T11:44:28;100057.78;;;10.04;100.00
54172;BME280;40076;52.354;4.970;2024-03-02T11:47:00;100065.22;;;10.07;100.00
54172;BME280;40076;52.354;4.970;2024-03-02T11:49:40;100066.47;;;10.10;100.00
54172;BME280;40076;52.354;4.970;2024-03-02T11:52:07;100063.53;;;10.15;100.00
54172;BME280;40076;52.354;4.970;2024-03-02T11:54:35;100064.81;;;10.17;100.00
54172;BME280;40076;52.354;4.970;2024-03-02T11:57:05;100055.28;;;10.20;100.00
54172;BME280;40076;52.354;4.970;2024-03-02T11:59:31;100047.28;;;10.23;100.00
54172;BME280;40076;52.354;4.970;2024-03-02T12:01:57;100048.66;;;10.29;100.00
54172;BME280;40076;52.354;4.970;2024-03-02T12:04:23;100056.06;;;10.32;100.00
54172;BME280;40076;52.354;4.970;2024-03-02T12:07:09;100045.84;;;10.38;100.00
54172;BME280;40076;52.354;4.970;2024-03-02T12:09:34;100046.28;;;10.40;100.00
54172;BME280;40076;52.354;4.970;2024-03-02T12:12:09;100046.09;;;10.45;100.00
54172;BME280;40076;52.354;4.970;2024-03-02T12:14:37;100036.97;;;10.50;100.00
54172;BME280;40076;52.354;4.970;2024-03-02T12:17:03;100042.94;;;10.55;100.00
54172;BME280;40076;52.354;4.970;2024-03-02T12:19:30;100039.25;;;10.60;100.00
54172;BME280;40076;52.354;4.970;2024-03-02T12:21:59;100041.56;;;10.61;100.00
54172;BME280;40076;52.354;4.970;2024-03-02T12:24:27;100026.94;;;10.62;99.65
54172;BME280;40076;52.354;4.970;2024-03-02T12:26:53;100026.75;;;10.67;100.00
54172;BME280;40076;52.354;4.970;2024-03-02T12:29:20;100016.34;;;10.69;100.00
54172;BME280;40076;52.354;4.970;2024-03-02T12:31:50;100023.13;;;10.75;100.00
54172;BME280;40076;52.354;4.970;2024-03-02T12:34:16;100015.13;;;10.79;100.00
54172;BME280;40076;52.354;4.970;2024-03-02T12:36:42;100011.75;;;10.82;100.00
54172;BME280;40076;52.354;4.970;2024-03-02T12:39:08;100011.06;;;10.85;99.86
54172;BME280;40076;52.354;4.970;2024-03-02T12:41:38;100008.81;;;10.87;96.89
54172;BME280;40076;52.354;4.970;2024-03-02T12:44:04;100010.06;;;10.90;97.05
54172;BME280;40076;52.354;4.970;2024-03-02T12:46:31;100006.31;;;10.94;97.40
54172;BME280;40076;52.354;4.970;2024-03-02T12:48:57;99992.47;;;10.96;97.22
54172;BME280;40076;52.354;4.970;2024-03-02T12:51:22;99994.03;;;10.97;96.18
54172;BME280;40076;52.354;4.970;2024-03-02T12:53:55;99991.44;;;11.00;95.67
54172;BME280;40076;52.354;4.970;2024-03-02T12:56:20;99996.16;;;11.03;95.04
54172;BME280;40076;52.354;4.970;2024-03-02T12:58:46;99985.44;;;11.07;95.62
54172;BME280;40076;52.354;4.970;2024-03-02T13:01:14;99986.69;;;11.09;94.66